Time,TemperatureF,DewpointF,PressureIn,WindDirection,WindDirectionDegrees,WindSpeedMPH,WindSpeedGustMPH,Humidity,HourlyPrecipIn,Conditions,Clouds,dailyrainin,SoftwareType,DateUTC
2013-01-20 00:03:00,24.0,-99.9,-100.00,NW,305,14.0,20.0,-999,0.00,,,0.00,,2013-01-20 06:03:00,
2013-01-20 00:12:00,24.0,-99.9,-100.00,NW,305,14.0,20.0,-999,0.00,,,0.00,,2013-01-20 06:12:00,
2013-01-20 00:22:00,24.0,-99.9,-100.00,NW,305,14.0,20.0,-999,0.00,,,0.00,,2013-01-20 06:22:00,
2013-01-20 00:34:00,22.0,-99.9,-100.00,WNW,296,13.0,23.0,-999,0.00,,,0.00,,2013-01-20 06:34:00,
2013-01-20 00:43:00,22.0,-99.9,-100.00,WNW,296,13.0,23.0,-999,0.00,,,0.00,,2013-01-20 06:43:00,
2013-01-20 00:53:00,22.0,-99.9,-100.00,WNW,296,13.0,23.0,-999,0.00,,,0.00,,2013-01-20 06:53:00,
2013-01-20 01:02:00,22.0,-99.9,-100.00,WNW,292,9.0,17.0,-999,0.00,,,0.00,,2013-01-20 07:02:00,
2013-01-20 01:12:00,22.0,-99.9,-100.00,WNW,292,9.0,17.0,-999,0.00,,,0.00,,2013-01-20 07:12:00,
2013-01-20 01:22:00,22.0,-99.9,-100.00,WNW,292,9.0,17.0,-999,0.00,,,0.00,,2013-01-20 07:22:00,
2013-01-20 01:32:00,20.0,-99.9,-100.00,WNW,289,9.0,16.0,-999,0.00,,,0.00,,2013-01-20 07:32:00,
2013-01-20 01:43:00,20.0,-99.9,-100.00,WNW,289,9.0,16.0,-999,0.00,,,0.00,,2013-01-20 07:43:00,
2013-01-20 01:53:00,20.0,-99.9,-100.00,WNW,289,9.0,16.0,-999,0.00,,,0.00,,2013-01-20 07:53:00,
2013-01-20 02:02:00,20.0,-99.9,-100.00,West,274,7.0,12.0,-999,0.00,,,0.00,,2013-01-20 08:02:00,
2013-01-20 02:12:00,20.0,-99.9,-100.00,West,274,7.0,12.0,-999,0.00,,,0.00,,2013-01-20 08:12:00,
2013-01-20 02:22:00,20.0,-99.9,-100.00,West,274,7.0,12.0,-999,0.00,,,0.00,,2013-01-20 08:22:00,
2013-01-20 02:32:00,19.0,-99.9,-100.00,WNW,284,6.0,14.0,-999,0.00,,,0.00,,2013-01-20 08:32:00,
2013-01-20 02:43:00,19.0,-99.9,-100.00,WNW,284,6.0,14.0,-999,0.00,,,0.00,,2013-01-20 08:43:00,
2013-01-20 02:53:00,19.0,-99.9,-100.00,WNW,284,6.0,14.0,-999,0.00,,,0.00,,2013-01-20 08:53:00,
2013-01-20 03:02:00,18.0,-99.9,-100.00,West,279,7.0,17.0,-999,0.00,,,0.00,,2013-01-20 09:02:00,
2013-01-20 03:12:00,18.0,-99.9,-100.00,West,279,7.0,17.0,-999,0.00,,,0.00,,2013-01-20 09:12:00,
2013-01-20 03:22:00,18.0,-99.9,-100.00,West,279,7.0,17.0,-999,0.00,,,0.00,,2013-01-20 09:22:00,
2013-01-20 03:33:00,17.0,-99.9,-100.00,West,281,7.0,11.0,-999,0.00,,,0.00,,2013-01-20 09:33:00,
2013-01-20 03:43:00,17.0,-99.9,-100.00,West,281,7.0,11.0,-999,0.00,,,0.00,,2013-01-20 09:43:00,
2013-01-20 03:53:00,17.0,-99.9,-100.00,West,281,7.0,11.0,-999,0.00,,,0.00,,2013-01-20 09:53:00,
2013-01-20 04:03:00,17.0,-99.9,-100.00,WNW,301,9.0,15.0,-999,0.00,,,0.00,,2013-01-20 10:03:00,
2013-01-20 04:12:00,17.0,-99.9,-100.00,WNW,301,9.0,15.0,-999,0.00,,,0.00,,2013-01-20 10:12:00,
2013-01-20 04:23:00,17.0,-99.9,-100.00,WNW,301,9.0,15.0,-999,0.00,,,0.00,,2013-01-20 10:23:00,
2013-01-20 04:33:00,16.0,-99.9,-100.00,WNW,291,7.0,13.0,-999,0.00,,,0.00,,2013-01-20 10:33:00,
2013-01-20 04:43:00,16.0,-99.9,-100.00,WNW,291,7.0,13.0,-999,0.00,,,0.00,,2013-01-20 10:43:00,
2013-01-20 04:53:00,16.0,-99.9,-100.00,WNW,291,7.0,13.0,-999,0.00,,,0.00,,2013-01-20 10:53:00,
2013-01-20 05:03:00,15.0,-99.9,-100.00,WNW,292,6.0,7.0,-999,0.00,,,0.00,,2013-01-20 11:03:00,
2013-01-20 05:12:00,15.0,-99.9,-100.00,WNW,292,6.0,7.0,-999,0.00,,,0.00,,2013-01-20 11:12:00,
2013-01-20 05:23:00,15.0,-99.9,-100.00,WNW,292,6.0,7.0,-999,0.00,,,0.00,,2013-01-20 11:23:00,
2013-01-20 05:33:00,15.0,-99.9,-100.00,WNW,291,7.0,12.0,-999,0.00,,,0.00,,2013-01-20 11:33:00,
2013-01-20 05:43:00,15.0,-99.9,-100.00,WNW,291,7.0,12.0,-999,0.00,,,0.00,,2013-01-20 11:43:00,
2013-01-20 05:54:00,15.0,-99.9,-100.00,WNW,291,7.0,12.0,-999,0.00,,,0.00,,2013-01-20 11:54:00,
2013-01-20 06:03:00,14.0,-99.9,-100.00,WNW,291,6.0,9.0,-999,0.00,,,0.00,,2013-01-20 12:03:00,
2013-01-20 06:13:00,14.0,-99.9,-100.00,WNW,291,6.0,9.0,-999,0.00,,,0.00,,2013-01-20 12:13:00,
2013-01-20 06:23:00,14.0,-99.9,-100.00,WNW,291,6.0,9.0,-999,0.00,,,0.00,,2013-01-20 12:23:00,
2013-01-20 06:34:00,14.0,-99.9,-100.00,WNW,294,8.0,13.0,-999,0.00,,,0.00,,2013-01-20 12:34:00,
2013-01-20 06:44:00,14.0,-99.9,-100.00,WNW,294,8.0,13.0,-999,0.00,,,0.00,,2013-01-20 12:44:00,
2013-01-20 06:53:00,14.0,-99.9,-100.00,WNW,294,8.0,13.0,-999,0.00,,,0.00,,2013-01-20 12:53:00,
2013-01-20 07:03:00,13.0,-99.9,-100.00,West,281,9.0,12.0,-999,0.00,,,0.00,,2013-01-20 13:03:00,
2013-01-20 07:12:00,13.0,-99.9,-100.00,West,281,9.0,12.0,-999,0.00,,,0.00,,2013-01-20 13:12:00,
2013-01-20 07:23:00,13.0,-99.9,-100.00,West,281,9.0,12.0,-999,0.00,,,0.00,,2013-01-20 13:23:00,
2013-01-20 07:34:00,12.0,-99.9,-100.00,WNW,291,10.0,14.0,-999,0.00,,,0.00,,2013-01-20 13:34:00,
2013-01-20 07:43:00,12.0,-99.9,-100.00,WNW,291,10.0,14.0,-999,0.00,,,0.00,,2013-01-20 13:43:00,
2013-01-20 07:53:00,12.0,-99.9,-100.00,WNW,291,10.0,14.0,-999,0.00,,,0.00,,2013-01-20 13:53:00,
2013-01-20 08:03:00,12.0,-99.9,-100.00,NW,306,6.0,9.0,-999,0.00,,,0.00,,2013-01-20 14:03:00,
2013-01-20 08:12:00,12.0,-99.9,-100.00,NW,306,6.0,9.0,-999,0.00,,,0.00,,2013-01-20 14:12:00,
2013-01-20 08:23:00,12.0,-99.9,-100.00,NW,306,6.0,9.0,-999,0.00,,,0.00,,2013-01-20 14:23:00,
2013-01-20 08:30:00,12.0,-99.9,-100.00,NW,314,7.0,10.0,-999,0.00,,,0.00,,2013-01-20 14:30:00,
2013-01-20 08:33:00,12.0,-99.9,-100.00,NW,304,5.0,10.0,-999,0.00,,,0.00,,2013-01-20 14:33:00,
2013-01-20 08:43:00,12.0,-99.9,-100.00,NW,304,5.0,10.0,-999,0.00,,,0.00,,2013-01-20 14:43:00,
2013-01-20 08:53:00,12.0,-99.9,-100.00,NW,304,5.0,10.0,-999,0.00,,,0.00,,2013-01-20 14:53:00,
2013-01-20 09:04:00,12.0,-99.9,-100.00,NW,314,7.0,10.0,-999,0.00,,,0.00,,2013-01-20 15:04:00,
2013-01-20 09:13:00,12.0,-99.9,-100.00,NW,314,7.0,10.0,-999,0.00,,,0.00,,2013-01-20 15:13:00,
2013-01-20 09:23:00,12.0,-99.9,-100.00,NW,314,7.0,10.0,-999,0.00,,,0.00,,2013-01-20 15:23:00,
2013-01-20 09:43:00,13.0,-99.9,-100.00,NW,314,5.0,8.0,-999,0.00,,,0.00,,2013-01-20 15:43:00,
2013-01-20 09:53:00,13.0,-99.9,-100.00,NW,314,5.0,8.0,-999,0.00,,,0.00,,2013-01-20 15:53:00,
2013-01-20 10:03:00,13.0,-99.9,-100.00,WNW,298,6.0,7.0,-999,0.00,,,0.00,,2013-01-20 16:03:00,
2013-01-20 10:12:00,13.0,-99.9,-100.00,WNW,298,6.0,7.0,-999,0.00,,,0.00,,2013-01-20 16:12:00,
2013-01-20 10:23:00,13.0,-99.9,-100.00,WNW,298,6.0,7.0,-999,0.00,,,0.00,,2013-01-20 16:23:00,
2013-01-20 10:33:00,14.0,-99.9,-100.00,WNW,300,7.0,9.0,-999,0.00,,,0.00,,2013-01-20 16:33:00,
2013-01-20 10:43:00,14.0,-99.9,-100.00,WNW,300,7.0,9.0,-999,0.00,,,0.00,,2013-01-20 16:43:00,
2013-01-20 10:53:00,14.0,-99.9,-100.00,WNW,300,7.0,9.0,-999,0.00,,,0.00,,2013-01-20 16:53:00,
2013-01-20 11:03:00,14.0,-99.9,-100.00,NW,304,7.0,10.0,-999,0.00,,,0.00,,2013-01-20 17:03:00,
2013-01-20 11:13:00,14.0,-99.9,-100.00,NW,304,7.0,10.0,-999,0.00,,,0.00,,2013-01-20 17:13:00,
2013-01-20 11:23:00,14.0,-99.9,-100.00,NW,304,7.0,10.0,-999,0.00,,,0.00,,2013-01-20 17:23:00,
2013-01-20 11:33:00,15.0,-99.9,-100.00,NW,305,5.0,10.0,-999,0.00,,,0.00,,2013-01-20 17:33:00,
2013-01-20 11:43:00,15.0,-99.9,-100.00,NW,305,5.0,10.0,-999,0.00,,,0.00,,2013-01-20 17:43:00,
2013-01-20 11:53:00,15.0,-99.9,-100.00,NW,305,5.0,10.0,-999,0.00,,,0.00,,2013-01-20 17:53:00,
2013-01-20 12:03:00,16.0,-99.9,-100.00,NW,318,7.0,15.0,-999,0.00,,,-99.99,,2013-01-20 18:03:00,
2013-01-20 12:13:00,16.0,-99.9,-100.00,NW,318,7.0,15.0,-999,0.00,,,-99.99,,2013-01-20 18:13:00,
2013-01-20 12:24:00,16.0,-99.9,-100.00,NW,318,7.0,15.0,-999,0.00,,,-99.99,,2013-01-20 18:24:00,
2013-01-20 12:33:00,17.0,-99.9,-100.00,WNW,291,6.0,10.0,-999,0.00,,,0.00,,2013-01-20 18:33:00,
2013-01-20 12:43:00,17.0,-99.9,-100.00,WNW,291,6.0,10.0,-999,0.00,,,0.00,,2013-01-20 18:43:00,
2013-01-20 12:53:00,17.0,-99.9,-100.00,WNW,291,6.0,10.0,-999,0.00,,,0.00,,2013-01-20 18:53:00,
2013-01-20 13:03:00,18.0,-99.9,-100.00,NW,307,4.0,6.0,-999,0.00,,,0.00,,2013-01-20 19:03:00,
2013-01-20 13:13:00,18.0,-99.9,-100.00,NW,307,4.0,6.0,-999,0.00,,,0.00,,2013-01-20 19:13:00,
2013-01-20 13:23:00,18.0,-99.9,-100.00,NW,307,4.0,6.0,-999,0.00,,,0.00,,2013-01-20 19:23:00,
2013-01-20 13:33:00,17.0,-99.9,-100.00,WNW,291,4.0,10.0,-999,0.00,,,0.00,,2013-01-20 19:33:00,
2013-01-20 13:43:00,17.0,-99.9,-100.00,WNW,291,4.0,10.0,-999,0.00,,,0.00,,2013-01-20 19:43:00,
2013-01-20 13:53:00,17.0,-99.9,-100.00,WNW,291,4.0,10.0,-999,0.00,,,0.00,,2013-01-20 19:53:00,
2013-01-20 14:03:00,17.0,-99.9,-100.00,WNW,298,8.0,12.0,-999,0.00,,,0.00,,2013-01-20 20:03:00,
2013-01-20 14:12:00,17.0,-99.9,-100.00,WNW,298,8.0,12.0,-999,0.00,,,0.00,,2013-01-20 20:12:00,
2013-01-20 14:23:00,17.0,-99.9,-100.00,WNW,298,8.0,12.0,-999,0.00,,,0.00,,2013-01-20 20:23:00,
2013-01-20 14:33:00,18.0,-99.9,-100.00,West,277,4.0,10.0,-999,0.00,,,0.00,,2013-01-20 20:33:00,
2013-01-20 14:43:00,18.0,-99.9,-100.00,West,277,4.0,10.0,-999,0.00,,,0.00,,2013-01-20 20:43:00,
2013-01-20 14:54:00,18.0,-99.9,-100.00,West,277,4.0,10.0,-999,0.00,,,0.00,,2013-01-20 20:54:00,
2013-01-20 15:04:00,18.0,-99.9,-100.00,West,259,3.0,8.0,-999,0.00,,,0.00,,2013-01-20 21:04:00,
2013-01-20 15:13:00,18.0,-99.9,-100.00,West,259,3.0,8.0,-999,0.00,,,0.00,,2013-01-20 21:13:00,
2013-01-20 15:23:00,18.0,-99.9,-100.00,West,259,3.0,8.0,-999,0.00,,,0.00,,2013-01-20 21:23:00,
2013-01-20 15:34:00,18.0,-99.9,-100.00,West,270,3.0,12.0,-999,0.00,,,0.00,,2013-01-20 21:34:00,
2013-01-20 15:43:00,18.0,-99.9,-100.00,West,270,3.0,12.0,-999,0.00,,,0.00,,2013-01-20 21:43:00,
2013-01-20 15:54:00,18.0,-99.9,-100.00,West,270,3.0,12.0,-999,0.00,,,0.00,,2013-01-20 21:54:00,
2013-01-20 16:03:00,18.0,-99.9,-100.00,WNW,291,5.0,8.0,-999,0.00,,,0.00,,2013-01-20 22:03:00,
2013-01-20 16:13:00,18.0,-99.9,-100.00,WNW,291,5.0,8.0,-999,0.00,,,0.00,,2013-01-20 22:13:00,
2013-01-20 16:23:00,18.0,-99.9,-100.00,WNW,291,5.0,8.0,-999,0.00,,,0.00,,2013-01-20 22:23:00,
2013-01-20 16:34:00,18.0,-99.9,-100.00,WNW,282,4.0,9.0,-999,0.00,,,0.00,,2013-01-20 22:34:00,
2013-01-20 16:43:00,18.0,-99.9,-100.00,WNW,282,4.0,9.0,-999,0.00,,,0.00,,2013-01-20 22:43:00,
2013-01-20 16:53:00,18.0,-99.9,-100.00,WNW,282,4.0,9.0,-999,0.00,,,0.00,,2013-01-20 22:53:00,
2013-01-20 17:03:00,17.0,-99.9,-100.00,NW,307,5.0,9.0,-999,0.00,,,0.00,,2013-01-20 23:03:00,
2013-01-20 17:13:00,17.0,-99.9,-100.00,NW,307,5.0,9.0,-999,0.00,,,0.00,,2013-01-20 23:13:00,
2013-01-20 17:23:00,17.0,-99.9,-100.00,NW,307,5.0,9.0,-999,0.00,,,0.00,,2013-01-20 23:23:00,
2013-01-20 17:33:00,17.0,-99.9,-100.00,West,277,5.0,11.0,-999,0.00,,,0.00,,2013-01-20 23:33:00,
2013-01-20 17:43:00,17.0,-99.9,-100.00,West,277,5.0,11.0,-999,0.00,,,0.00,,2013-01-20 23:43:00,
2013-01-20 17:53:00,17.0,-99.9,-100.00,West,277,5.0,11.0,-999,0.00,,,0.00,,2013-01-20 23:53:00,
2013-01-20 18:03:00,17.0,-99.9,-100.00,WNW,296,6.0,10.0,-999,0.00,,,0.00,,2013-01-21 00:03:00,
2013-01-20 18:13:00,17.0,-99.9,-100.00,WNW,296,6.0,10.0,-999,0.00,,,0.00,,2013-01-21 00:13:00,
2013-01-20 18:23:00,17.0,-99.9,-100.00,WNW,296,6.0,10.0,-999,0.00,,,0.00,,2013-01-21 00:23:00,
2013-01-20 18:33:00,17.0,-99.9,-100.00,West,277,5.0,10.0,-999,0.00,,,0.00,,2013-01-21 00:33:00,
2013-01-20 18:43:00,17.0,-99.9,-100.00,West,277,5.0,10.0,-999,0.00,,,0.00,,2013-01-21 00:43:00,
2013-01-20 18:54:00,17.0,-99.9,-100.00,West,277,5.0,10.0,-999,0.00,,,0.00,,2013-01-21 00:54:00,
2013-01-20 19:03:00,17.0,-99.9,-100.00,West,278,3.0,8.0,-999,0.00,,,0.00,,2013-01-21 01:03:00,
2013-01-20 19:13:00,17.0,-99.9,-100.00,West,278,3.0,8.0,-999,0.00,,,0.00,,2013-01-21 01:13:00,
2013-01-20 19:23:00,17.0,-99.9,-100.00,West,278,3.0,8.0,-999,0.00,,,0.00,,2013-01-21 01:23:00,
2013-01-20 19:33:00,17.0,-99.9,-100.00,West,275,5.0,11.0,-999,0.00,,,0.00,,2013-01-21 01:33:00,
2013-01-20 19:44:00,17.0,-99.9,-100.00,West,275,5.0,11.0,-999,0.00,,,0.00,,2013-01-21 01:44:00,
2013-01-20 19:53:00,17.0,-99.9,-100.00,West,275,5.0,11.0,-999,0.00,,,0.00,,2013-01-21 01:53:00,
2013-01-20 20:03:00,16.0,-99.9,-100.00,WNW,292,5.0,12.0,-999,0.00,,,0.00,,2013-01-21 02:03:00,
2013-01-20 20:13:00,16.0,-99.9,-100.00,WNW,292,5.0,12.0,-999,0.00,,,0.00,,2013-01-21 02:13:00,
2013-01-20 20:23:00,16.0,-99.9,-100.00,WNW,292,5.0,12.0,-999,0.00,,,0.00,,2013-01-21 02:23:00,
2013-01-20 20:34:00,16.0,-99.9,-100.00,West,274,5.0,10.0,-999,0.00,,,0.00,,2013-01-21 02:34:00,
2013-01-20 20:43:00,16.0,-99.9,-100.00,West,274,5.0,10.0,-999,0.00,,,0.00,,2013-01-21 02:43:00,
2013-01-20 20:54:00,16.0,-99.9,-100.00,West,274,5.0,10.0,-999,0.00,,,0.00,,2013-01-21 02:54:00,
2013-01-20 21:03:00,16.0,-99.9,-100.00,WNW,295,5.0,9.0,-999,0.00,,,0.00,,2013-01-21 03:03:00,
2013-01-20 21:13:00,16.0,-99.9,-100.00,WNW,295,5.0,9.0,-999,0.00,,,0.00,,2013-01-21 03:13:00,
2013-01-20 21:23:00,16.0,-99.9,-100.00,WNW,295,5.0,9.0,-999,0.00,,,0.00,,2013-01-21 03:23:00,
2013-01-20 21:33:00,15.0,-99.9,-100.00,WNW,295,4.0,7.0,-999,0.00,,,0.00,,2013-01-21 03:33:00,
2013-01-20 21:44:00,15.0,-99.9,-100.00,WNW,295,4.0,7.0,-999,0.00,,,0.00,,2013-01-21 03:44:00,
2013-01-20 21:54:00,15.0,-99.9,-100.00,WNW,295,4.0,7.0,-999,0.00,,,0.00,,2013-01-21 03:54:00,
2013-01-20 22:03:00,15.0,-99.9,-100.00,West,277,3.0,6.0,-999,0.00,,,0.00,,2013-01-21 04:03:00,
2013-01-20 22:13:00,15.0,-99.9,-100.00,West,277,3.0,6.0,-999,0.00,,,0.00,,2013-01-21 04:13:00,
2013-01-20 22:23:00,15.0,-99.9,-100.00,West,277,3.0,6.0,-999,0.00,,,0.00,,2013-01-21 04:23:00,
2013-01-20 22:33:00,15.0,-99.9,-100.00,West,279,4.0,10.0,-999,0.00,,,0.00,,2013-01-21 04:33:00,
2013-01-20 22:43:00,15.0,-99.9,-100.00,West,279,4.0,10.0,-999,0.00,,,0.00,,2013-01-21 04:43:00,
2013-01-20 22:53:00,15.0,-99.9,-100.00,West,279,4.0,10.0,-999,0.00,,,0.00,,2013-01-21 04:53:00,
2013-01-20 23:04:00,14.0,-99.9,-100.00,West,264,4.0,7.0,-999,0.00,,,0.00,,2013-01-21 05:04:00,
2013-01-20 23:13:00,14.0,-99.9,-100.00,West,264,4.0,7.0,-999,0.00,,,0.00,,2013-01-21 05:13:00,
2013-01-20 23:23:00,14.0,-99.9,-100.00,West,264,4.0,7.0,-999,0.00,,,0.00,,2013-01-21 05:23:00,
2013-01-20 23:34:00,14.0,-99.9,-100.00,WSW,247,4.0,9.0,-999,0.00,,,0.00,,2013-01-21 05:34:00,
2013-01-20 23:43:00,14.0,-99.9,-100.00,WSW,247,4.0,9.0,-999,0.00,,,0.00,,2013-01-21 05:43:00,
2013-01-20 23:53:00,14.0,-99.9,-100.00,WSW,247,4.0,9.0,-999,0.00,,,0.00,,2013-01-21 05:53:00,